createdAt,value
2023-03-17T00:01:31.621Z,99011.91
2023-03-17T00:06:37.133Z,99005.28
2023-03-17T00:11:41.164Z,99006.19
2023-03-17T00:16:47.334Z,98994.28
2023-03-17T00:21:53.396Z,99004.94
2023-03-17T00:26:57.700Z,99003.38
2023-03-17T00:32:01.771Z,99008.59
2023-03-17T00:37:07.086Z,99016.44
2023-03-17T00:42:11.854Z,99009.41
2023-03-17T00:47:16.469Z,99012.38
2023-03-17T00:52:21.823Z,98996.88
2023-03-17T00:57:25.927Z,99005.78
2023-03-17T01:02:30.979Z,98995.31
2023-03-17T01:07:38.496Z,98980.66
2023-03-17T01:12:43.005Z,98981.59
2023-03-17T01:17:47.538Z,98972.50
2023-03-17T01:22:52.840Z,98958.47
2023-03-17T01:27:57.836Z,98951.69
2023-03-17T01:33:02.094Z,98942.38
2023-03-17T01:38:08.525Z,98944.19
2023-03-17T01:43:22.661Z,98941.63
2023-03-17T01:48:27.308Z,98942.63
2023-03-17T01:53:33.612Z,98940.28
2023-03-17T01:58:38.191Z,98934.13
2023-03-17T02:03:43.033Z,98934.78
2023-03-17T02:08:48.342Z,98922.06
2023-03-17T02:13:52.227Z,98919.72
2023-03-17T02:18:58.405Z,98911.25
2023-03-17T02:24:07.564Z,98900.19
2023-03-17T02:29:13.764Z,98906.44
2023-03-17T02:34:18.406Z,98911.81
2023-03-17T02:39:24.310Z,98909.50
2023-03-17T02:44:28.636Z,98910.00
2023-03-17T02:49:33.303Z,98913.03
2023-03-17T02:54:39.190Z,98894.13
2023-03-17T02:59:43.324Z,98894.97
2023-03-17T03:04:47.927Z,98914.00
2023-03-17T03:09:53.340Z,98921.09
2023-03-17T03:14:57.229Z,98926.13
2023-03-17T03:20:01.152Z,98906.22
2023-03-17T03:25:07.697Z,98898.41
2023-03-17T03:30:12.865Z,98879.44
2023-03-17T03:35:17.075Z,98897.09
2023-03-17T03:40:22.835Z,98914.00
2023-03-17T03:45:27.462Z,98912.28
2023-03-17T03:50:31.948Z,98901.53
2023-03-17T03:55:37.342Z,98911.59
2023-03-17T04:00:41.428Z,98907.50
2023-03-17T04:05:45.478Z,98909.81
2023-03-17T04:10:50.722Z,98898.91
2023-03-17T04:15:54.635Z,98903.50
2023-03-17T04:20:58.544Z,98911.03
2023-03-17T04:26:05.313Z,98924.22
2023-03-17T04:31:11.602Z,98914.75
2023-03-17T04:36:19.431Z,98924.06
2023-03-17T04:41:24.994Z,98920.03
2023-03-17T04:46:29.513Z,98928.03
2023-03-17T04:51:33.403Z,98920.13
2023-03-17T04:56:38.728Z,98934.81
2023-03-17T05:01:43.274Z,98942.09
2023-03-17T05:06:47.301Z,98933.00
2023-03-17T05:11:52.841Z,98930.44
2023-03-17T05:16:57.342Z,98918.56
2023-03-17T05:22:01.589Z,98926.75
2023-03-17T05:27:07.281Z,98939.88
2023-03-17T05:32:11.761Z,98940.13
2023-03-17T05:37:16.099Z,98943.16
2023-03-17T05:42:22.286Z,98932.72
2023-03-17T05:47:27.014Z,98929.47
2023-03-17T05:52:31.115Z,98940.69
2023-03-17T05:57:36.815Z,98940.75
2023-03-17T06:02:41.120Z,98942.63
2023-03-17T06:07:54.668Z,98943.56
2023-03-17T06:13:03.957Z,98946.09
2023-03-17T06:18:08.549Z,98950.50
2023-03-17T06:23:12.461Z,98946.22
2023-03-17T06:28:18.522Z,98937.84
2023-03-17T06:33:22.644Z,98941.88
2023-03-17T06:38:26.700Z,98944.97
2023-03-17T06:43:32.657Z,98952.31
2023-03-17T06:48:36.945Z,98939.28
2023-03-17T06:53:41.148Z,98943.59
2023-03-17T06:58:47.151Z,98958.91
2023-03-17T07:03:51.263Z,98960.97
2023-03-17T07:08:55.511Z,98955.66
2023-03-17T07:14:01.439Z,98954.59
2023-03-17T07:19:05.475Z,98957.97
2023-03-17T07:24:09.939Z,98967.16
2023-03-17T07:29:15.719Z,98964.72
2023-03-17T07:34:20.062Z,98979.38
2023-03-17T07:39:23.943Z,98976.06
2023-03-17T07:44:29.523Z,98957.81
2023-03-17T07:49:41.652Z,98956.47
2023-03-17T07:54:46.331Z,98948.03
2023-03-17T07:59:51.740Z,98950.06
2023-03-17T08:04:56.781Z,98948.53
2023-03-17T08:10:01.071Z,98947.00
2023-03-17T08:15:07.671Z,98942.84
2023-03-17T08:20:13.206Z,98949.63
2023-03-17T08:25:17.816Z,98963.78
2023-03-17T08:30:23.579Z,98952.94
2023-03-17T08:35:27.487Z,98953.69
2023-03-17T08:40:32.026Z,98934.06
2023-03-17T08:45:39.916Z,98938.31
2023-03-17T08:50:44.200Z,98947.81
2023-03-17T08:55:48.369Z,98938.88
2023-03-17T09:00:53.983Z,98953.81
2023-03-17T09:05:59.743Z,98951.56
2023-03-17T09:11:05.541Z,98962.38
2023-03-17T09:16:11.188Z,98962.13
2023-03-17T09:21:16.182Z,98962.41
2023-03-17T09:26:20.519Z,98961.91
2023-03-17T09:31:26.913Z,98968.19
2023-03-17T09:44:03.343Z,98957.84
2023-03-17T09:49:10.780Z,98955.19
2023-03-17T09:54:19.971Z,98957.16
2023-03-17T09:59:31.065Z,98963.34
2023-03-17T10:04:37.348Z,98957.22
2023-03-17T10:09:46.764Z,98938.31
2023-03-17T10:14:59.533Z,98928.00
2023-03-17T10:20:07.192Z,98931.72
2023-03-17T10:25:17.069Z,98929.38
2023-03-17T10:30:23.562Z,98950.22
2023-03-17T10:35:29.697Z,98945.94
2023-03-17T10:40:34.480Z,98938.56
2023-03-17T10:45:44.053Z,98928.72
2023-03-17T10:50:51.649Z,98925.50
2023-03-17T10:56:00.957Z,98912.66
2023-03-17T11:01:08.047Z,98904.34
2023-03-17T11:06:16.994Z,98901.09
2023-03-17T11:11:26.246Z,98901.44
2023-03-17T11:16:30.448Z,98890.69
2023-03-17T11:21:47.316Z,98874.00
2023-03-17T11:26:57.601Z,98868.03
2023-03-17T11:32:09.500Z,98873.28
2023-03-17T11:37:22.715Z,98868.03
2023-03-17T11:42:32.997Z,98871.31
2023-03-17T11:47:43.210Z,98863.66
2023-03-17T11:53:00.022Z,98868.22
2023-03-17T11:58:09.658Z,98860.06
2023-03-17T12:03:18.015Z,98848.09
2023-03-17T12:08:30.014Z,98845.13
2023-03-17T12:13:40.324Z,98849.25
2023-03-17T12:18:53.133Z,98830.72
2023-03-17T12:24:01.924Z,98836.06
2023-03-17T12:29:10.605Z,98823.81
2023-03-17T12:34:20.472Z,98820.78
2023-03-17T12:39:30.410Z,98804.50
2023-03-17T12:44:46.861Z,98808.63
2023-03-17T12:50:22.777Z,98808.38
2023-03-17T12:55:29.471Z,98808.56
2023-03-17T13:00:35.291Z,98791.66
2023-03-17T13:05:39.426Z,98797.00
2023-03-17T13:10:47.988Z,98802.78
2023-03-17T13:15:59.012Z,98803.44
2023-03-17T13:21:25.173Z,98789.69
2023-03-17T13:26:55.426Z,98794.56
2023-03-17T13:32:31.830Z,98785.94
2023-03-17T13:37:51.762Z,98777.94
2023-03-17T13:43:11.087Z,98768.09
2023-03-17T13:48:33.109Z,98756.34
2023-03-17T13:53:39.536Z,98750.19
2023-03-17T13:59:23.034Z,98736.47
2023-03-17T14:04:33.831Z,98729.84
2023-03-17T14:09:39.404Z,98721.75
2023-03-17T14:14:49.435Z,98725.78
2023-03-17T14:20:08.622Z,98704.91
2023-03-17T14:25:17.762Z,98700.31
2023-03-17T14:30:23.870Z,98702.34
2023-03-17T14:35:32.644Z,98689.56
2023-03-17T14:40:37.353Z,98689.31
2023-03-17T14:45:50.331Z,98671.16
2023-03-17T14:50:57.318Z,98680.06
2023-03-17T14:56:01.855Z,98676.31
2023-03-17T15:01:07.990Z,98665.72
2023-03-17T15:06:25.390Z,98676.13
2023-03-17T15:11:38.712Z,98659.47
2023-03-17T15:16:45.293Z,98661.22
2023-03-17T15:21:51.014Z,98651.47
2023-03-17T15:27:02.666Z,98647.88
2023-03-17T15:32:15.323Z,98641.88
2023-03-17T15:37:22.063Z,98640.38
2023-03-17T15:42:28.906Z,98644.16
2023-03-17T15:47:35.300Z,98649.03
2023-03-17T15:52:40.729Z,98638.44
2023-03-17T15:57:53.836Z,98630.56
2023-03-17T16:03:01.454Z,98620.78
2023-03-17T16:08:07.670Z,98624.97
2023-03-17T16:13:11.712Z,98623.28
2023-03-17T16:18:19.196Z,98632.81
2023-03-17T16:23:27.120Z,98614.06
2023-03-17T16:28:32.863Z,98615.56
2023-03-17T16:33:39.975Z,98624.38
2023-03-17T16:38:46.081Z,98621.53
2023-03-17T16:43:53.609Z,98620.75
2023-03-17T16:48:57.504Z,98618.22
2023-03-17T16:54:02.884Z,98622.03
2023-03-17T16:59:08.807Z,98625.72
2023-03-17T17:04:12.687Z,98623.66
2023-03-17T17:09:18.767Z,98612.78
2023-03-17T17:14:22.681Z,98615.94
2023-03-17T17:19:26.560Z,98608.47
2023-03-17T17:24:32.087Z,98608.28
2023-03-17T17:29:36.476Z,98604.22
2023-03-17T17:34:40.731Z,98606.84
2023-03-17T17:39:46.315Z,98607.03
2023-03-17T17:44:51.135Z,98599.28
2023-03-17T17:49:55.043Z,98592.91
2023-03-17T17:55:01.075Z,98606.69
2023-03-17T18:00:06.834Z,98607.38
2023-03-17T18:05:13.535Z,98599.47
2023-03-17T18:10:22.485Z,98601.41
2023-03-17T18:15:27.993Z,98593.78
2023-03-17T18:20:32.653Z,98597.13
2023-03-17T18:25:38.338Z,98574.25
2023-03-17T18:30:42.989Z,98577.94
2023-03-17T18:35:48.868Z,98588.94
2023-03-17T18:40:54.451Z,98569.06
2023-03-17T18:45:58.709Z,98561.94
2023-03-17T18:51:03.206Z,98558.16
2023-03-17T18:56:09.877Z,98562.50
2023-03-17T19:01:14.235Z,98554.88
2023-03-17T19:06:20.402Z,98539.91
2023-03-17T19:11:26.276Z,98546.13
2023-03-17T19:16:30.894Z,98541.94
2023-03-17T19:21:34.845Z,98535.50
2023-03-17T19:26:40.523Z,98533.31
2023-03-17T19:31:46.175Z,98528.56
2023-03-17T19:36:52.109Z,98525.41
2023-03-17T19:41:59.381Z,98515.06
2023-03-17T19:47:05.122Z,98512.19
2023-03-17T19:52:10.693Z,98511.78
2023-03-17T19:57:16.837Z,98507.28
2023-03-17T20:02:21.555Z,98504.81
2023-03-17T20:07:25.521Z,98509.56
2023-03-17T20:12:32.684Z,98505.72
2023-03-17T20:17:37.421Z,98509.56
2023-03-17T20:22:43.614Z,98511.72
2023-03-17T20:27:49.123Z,98510.63
2023-03-17T20:32:53.051Z,98510.34
2023-03-17T20:37:57.960Z,98514.44
2023-03-17T20:43:03.593Z,98519.06
2023-03-17T20:48:10.612Z,98512.50
2023-03-17T20:53:14.953Z,98507.88
2023-03-17T20:58:20.473Z,98514.38
2023-03-17T21:03:24.377Z,98512.88
2023-03-17T21:08:28.539Z,98514.06
2023-03-17T21:13:34.752Z,98515.69
2023-03-17T21:18:39.082Z,98508.28
2023-03-17T21:23:44.122Z,98514.28
2023-03-17T21:28:50.603Z,98514.28
2023-03-17T21:33:54.648Z,98518.63
2023-03-17T21:38:58.775Z,98509.66
2023-03-17T21:44:04.703Z,98514.00
2023-03-17T21:49:09.224Z,98513.69
2023-03-17T21:54:13.368Z,98509.03
2023-03-17T21:59:19.060Z,98512.59
2023-03-17T22:04:23.219Z,98506.16
2023-03-17T22:09:27.858Z,98508.16
2023-03-17T22:14:35.371Z,98501.38
2023-03-17T22:19:40.150Z,98495.91
2023-03-17T22:24:44.064Z,98491.47
2023-03-17T22:29:49.476Z,98500.56
2023-03-17T22:34:54.185Z,98500.94
2023-03-17T22:40:02.468Z,98495.22
2023-03-17T22:45:10.087Z,98494.09
2023-03-17T22:50:15.514Z,98498.69
2023-03-17T22:55:19.745Z,98491.69
2023-03-17T23:00:25.895Z,98484.81
2023-03-17T23:05:29.841Z,98476.19
2023-03-17T23:10:33.966Z,98472.94
2023-03-17T23:15:39.671Z,98470.69
2023-03-17T23:20:44.337Z,98468.28
2023-03-17T23:25:48.296Z,98471.00
2023-03-17T23:30:54.239Z,98467.97
2023-03-17T23:35:58.569Z,98467.50
2023-03-17T23:41:02.719Z,98469.88
2023-03-17T23:46:08.580Z,98461.00
2023-03-17T23:51:13.546Z,98461.22
2023-03-17T23:56:19.377Z,98462.44
